createdAt,value
2023-04-28T00:00:04.352Z,100980.09
2023-04-28T00:05:26.256Z,100980.03
2023-04-28T00:10:48.126Z,100980.91
2023-04-28T00:16:09.953Z,100973.22
2023-04-28T00:21:31.760Z,100979.16
2023-04-28T00:26:53.646Z,100965.50
2023-04-28T00:32:15.474Z,100979.16
2023-04-28T00:37:38.224Z,100983.38
2023-04-28T00:43:00.030Z,100995.28
2023-04-28T00:48:22.010Z,100990.16
2023-04-28T00:53:44.950Z,100993.53
2023-04-28T00:59:06.762Z,100995.16
2023-04-28T01:04:29.921Z,100983.19
2023-04-28T01:09:51.882Z,101005.16
2023-04-28T01:15:18.660Z,100992.13
2023-04-28T01:20:40.486Z,101010.88
2023-04-28T01:26:02.439Z,101005.00
2023-04-28T01:31:24.299Z,101015.22
2023-04-28T01:36:46.134Z,101017.69
2023-04-28T01:42:07.978Z,101013.41
2023-04-28T01:47:29.810Z,101022.75
2023-04-28T01:52:51.620Z,101020.22
2023-04-28T01:58:13.915Z,101013.38
2023-04-28T02:03:35.917Z,101015.06
2023-04-28T02:08:57.910Z,101026.06
2023-04-28T02:14:19.730Z,101018.31
2023-04-28T02:19:41.555Z,101007.22
2023-04-28T02:25:03.569Z,101022.53
2023-04-28T02:30:25.357Z,101000.28
2023-04-28T02:35:47.153Z,101011.41
2023-04-28T02:41:09.377Z,101002.00
2023-04-28T02:46:31.369Z,101019.97
2023-04-28T02:51:53.179Z,101029.19
2023-04-28T02:57:15.015Z,101032.50
2023-04-28T03:02:36.890Z,101030.78
2023-04-28T03:07:59.009Z,101025.63
2023-04-28T03:13:20.859Z,101023.69
2023-04-28T03:18:42.688Z,101023.84
2023-04-28T03:24:05.799Z,101018.78
2023-04-28T03:29:27.782Z,101032.75
2023-04-28T03:34:49.729Z,101042.56
2023-04-28T03:40:11.812Z,101046.38
2023-04-28T03:45:33.866Z,101032.94
2023-04-28T03:50:55.701Z,101017.59
2023-04-28T03:56:17.548Z,101020.22
2023-04-28T04:01:39.368Z,101023.22
2023-04-28T04:07:01.432Z,101018.06
2023-04-28T04:12:12.983Z,101030.88
2023-04-28T04:17:34.999Z,101031.66
2023-04-28T04:22:56.881Z,101038.84
2023-04-28T04:28:18.804Z,101021.53
2023-04-28T04:33:40.680Z,101017.16
2023-04-28T04:39:02.875Z,101014.84
2023-04-28T04:44:24.697Z,101028.97
2023-04-28T04:49:46.630Z,101031.41
2023-04-28T04:55:08.867Z,101025.31
2023-04-28T05:00:30.831Z,101026.28
2023-04-28T05:05:52.709Z,101018.88
2023-04-28T05:11:14.721Z,101018.06
2023-04-28T05:16:36.607Z,101012.00
2023-04-28T05:21:58.535Z,101024.66
2023-04-28T05:27:20.396Z,101023.44
2023-04-28T05:32:42.304Z,101032.84
2023-04-28T05:38:04.163Z,101027.38
2023-04-28T05:43:25.952Z,101029.09
2023-04-28T05:48:47.796Z,101028.09
2023-04-28T05:54:09.628Z,101036.34
2023-04-28T05:59:31.555Z,101031.13
2023-04-28T06:04:53.540Z,101030.81
2023-04-28T06:10:15.513Z,101035.47
2023-04-28T06:15:37.506Z,101027.63
2023-04-28T06:20:59.415Z,101036.13
2023-04-28T06:26:21.400Z,101037.34
2023-04-28T06:31:43.375Z,101030.19
2023-04-28T06:37:05.283Z,101038.75
2023-04-28T06:42:27.220Z,101046.84
2023-04-28T06:47:49.095Z,101032.31
2023-04-28T06:53:10.935Z,101039.97
2023-04-28T06:58:32.796Z,101048.50
2023-04-28T07:03:54.783Z,101043.94
2023-04-28T07:09:16.686Z,101043.38
2023-04-28T07:14:38.503Z,101040.63
2023-04-28T07:20:00.358Z,101032.19
2023-04-28T07:25:22.274Z,101041.38
2023-04-28T07:30:44.136Z,101034.97
2023-04-28T07:36:06.470Z,101024.19
2023-04-28T07:41:28.468Z,101022.84
2023-04-28T07:46:52.133Z,101012.13
2023-04-28T07:52:14.335Z,101015.84
2023-04-28T07:57:36.358Z,101018.47
2023-04-28T08:02:58.310Z,101023.50
2023-04-28T08:08:20.459Z,101004.31
2023-04-28T08:13:42.285Z,101009.84
2023-04-28T08:19:04.213Z,101014.81
2023-04-28T08:24:26.186Z,101008.75
2023-04-28T08:29:48.053Z,101005.06
2023-04-28T08:35:10.385Z,101023.53
2023-04-28T08:40:32.294Z,101012.81
2023-04-28T08:45:54.246Z,101002.94
2023-04-28T08:51:23.681Z,100999.97
2023-04-28T08:56:46.337Z,100985.53
2023-04-28T09:02:09.144Z,100995.78
2023-04-28T09:07:31.199Z,100988.44
2023-04-28T09:12:54.856Z,100975.41
2023-04-28T09:18:16.749Z,100975.13
2023-04-28T09:23:48.728Z,100976.06
2023-04-28T09:29:13.314Z,100968.75
2023-04-28T09:34:54.940Z,100971.28
2023-04-28T09:40:16.938Z,100978.59
2023-04-28T09:45:39.969Z,100965.50
2023-04-28T09:51:04.077Z,100949.47
2023-04-28T09:56:28.658Z,100942.97
2023-04-28T10:01:50.758Z,100946.47
2023-04-28T10:07:14.075Z,100925.72
2023-04-28T10:12:36.061Z,100918.13
2023-04-28T10:17:59.330Z,100921.50
2023-04-28T10:23:47.768Z,100913.59
2023-04-28T10:29:09.766Z,100906.31
2023-04-28T10:34:31.797Z,100907.50
2023-04-28T10:40:31.153Z,100906.78
2023-04-28T10:45:56.795Z,100903.69
2023-04-28T10:51:19.432Z,100893.88
2023-04-28T10:57:02.193Z,100888.25
2023-04-28T11:02:50.641Z,100876.00
2023-04-28T11:08:18.316Z,100873.00
2023-04-28T11:13:41.924Z,100871.59
2023-04-28T11:19:04.493Z,100873.09
2023-04-28T11:24:28.165Z,100874.34
2023-04-28T11:29:49.961Z,100851.28
2023-04-28T11:35:11.770Z,100847.41
2023-04-28T11:40:33.780Z,100848.03
2023-04-28T11:45:55.755Z,100850.22
2023-04-28T11:51:35.521Z,100826.84
2023-04-28T11:56:58.348Z,100849.63
2023-04-28T12:02:28.193Z,100833.34
2023-04-28T12:07:50.403Z,100840.16
2023-04-28T12:13:16.336Z,100830.50
2023-04-28T12:18:38.192Z,100828.97
2023-04-28T12:24:00.030Z,100817.72
2023-04-28T12:29:41.533Z,100813.41
2023-04-28T12:35:03.921Z,100812.78
2023-04-28T12:40:26.088Z,100806.63
2023-04-28T12:45:48.004Z,100794.38
2023-04-28T12:51:09.951Z,100789.22
2023-04-28T12:56:31.788Z,100787.47
2023-04-28T13:01:53.640Z,100785.06
2023-04-28T13:07:16.205Z,100763.75
2023-04-28T13:12:38.063Z,100786.16
2023-04-28T13:17:59.966Z,100775.94
2023-04-28T13:23:22.027Z,100772.59
2023-04-28T13:28:43.856Z,100767.34
2023-04-28T13:34:05.704Z,100767.91
2023-04-28T13:39:27.569Z,100756.94
2023-04-28T13:44:49.541Z,100743.50
2023-04-28T13:50:11.417Z,100742.44
2023-04-28T13:55:33.378Z,100741.94
2023-04-28T14:00:57.187Z,100735.97
2023-04-28T14:06:19.301Z,100729.84
2023-04-28T14:11:41.146Z,100728.66
2023-04-28T14:17:03.141Z,100720.34
2023-04-28T14:22:25.031Z,100711.22
2023-04-28T14:27:50.791Z,100722.53
2023-04-28T14:33:12.726Z,100721.19
2023-04-28T14:38:34.639Z,100707.78
2023-04-28T14:43:56.440Z,100704.66
2023-04-28T14:49:18.286Z,100709.44
2023-04-28T14:54:40.230Z,100704.34
2023-04-28T15:00:03.370Z,100698.59
2023-04-28T15:05:25.191Z,100693.63
2023-04-28T15:10:47.054Z,100673.25
2023-04-28T15:16:08.975Z,100669.09
2023-04-28T15:21:30.837Z,100660.28
2023-04-28T15:26:52.749Z,100659.78
2023-04-28T15:32:14.580Z,100664.16
2023-04-28T15:37:46.523Z,100673.06
2023-04-28T15:43:08.411Z,100662.81
2023-04-28T15:48:30.218Z,100647.31
2023-04-28T15:53:52.309Z,100647.22
2023-04-28T15:59:14.137Z,100640.28
2023-04-28T16:04:36.077Z,100654.22
2023-04-28T16:09:57.984Z,100655.41
2023-04-28T16:15:20.587Z,100651.63
2023-04-28T16:20:42.485Z,100641.31
2023-04-28T16:26:04.412Z,100646.06
2023-04-28T16:31:26.657Z,100640.09
2023-04-28T16:36:48.515Z,100650.66
2023-04-28T16:42:10.388Z,100638.47
2023-04-28T16:47:32.203Z,100636.19
2023-04-28T16:52:54.017Z,100629.69
2023-04-28T16:58:15.907Z,100629.91
2023-04-28T17:03:39.372Z,100630.69
2023-04-28T17:09:01.232Z,100626.94
2023-04-28T17:14:23.082Z,100618.47
2023-04-28T17:19:44.920Z,100616.09
2023-04-28T17:25:07.135Z,100604.34
2023-04-28T17:30:28.966Z,100613.00
2023-04-28T17:35:50.819Z,100600.91
2023-04-28T17:41:12.658Z,100612.19
2023-04-28T17:46:34.552Z,100614.44
2023-04-28T17:51:56.388Z,100616.00
2023-04-28T17:57:18.246Z,100613.84
2023-04-28T18:02:40.233Z,100601.13
2023-04-28T18:08:02.939Z,100615.31
2023-04-28T18:13:24.806Z,100610.69
2023-04-28T18:18:46.788Z,100616.91
2023-04-28T18:24:08.642Z,100616.97
2023-04-28T18:29:30.458Z,100611.28
2023-04-28T18:34:52.434Z,100605.88
2023-04-28T18:40:14.451Z,100615.09
2023-04-28T18:45:37.771Z,100615.28
2023-04-28T18:51:00.826Z,100613.09
2023-04-28T18:56:22.751Z,100604.63
2023-04-28T19:01:44.702Z,100614.56
2023-04-28T19:07:06.658Z,100613.25
2023-04-28T19:12:28.510Z,100620.53
2023-04-28T19:17:50.557Z,100615.00
2023-04-28T19:23:12.483Z,100611.84
2023-04-28T19:28:34.594Z,100608.78
2023-04-28T19:33:57.826Z,100609.81
2023-04-28T19:39:19.767Z,100597.25
2023-04-28T19:44:41.743Z,100612.16
2023-04-28T19:50:03.783Z,100605.34
2023-04-28T19:55:25.749Z,100603.59
2023-04-28T20:00:47.633Z,100612.44
2023-04-28T20:06:15.240Z,100612.41
2023-04-28T20:11:37.075Z,100613.56
2023-04-28T20:16:59.461Z,100606.94
2023-04-28T20:22:21.291Z,100606.84
2023-04-28T20:27:43.150Z,100607.97
2023-04-28T20:33:04.996Z,100605.72
2023-04-28T20:38:29.033Z,100620.38
2023-04-28T20:43:50.853Z,100611.19
2023-04-28T20:49:12.751Z,100605.44
2023-04-28T20:54:35.502Z,100595.34
2023-04-28T20:59:57.332Z,100603.31
2023-04-28T21:05:19.348Z,100596.41
2023-04-28T21:10:41.234Z,100609.31
2023-04-28T21:16:03.081Z,100602.78
2023-04-28T21:21:24.905Z,100583.25
2023-04-28T21:26:46.700Z,100593.56
2023-04-28T21:32:08.585Z,100587.72
2023-04-28T21:37:31.309Z,100588.91
2023-04-28T21:42:53.122Z,100598.22
2023-04-28T21:48:15.026Z,100588.25
2023-04-28T21:53:36.873Z,100592.41
2023-04-28T21:58:58.786Z,100582.53
2023-04-28T22:04:21.039Z,100585.22
2023-04-28T22:09:42.936Z,100579.28
2023-04-28T22:15:05.384Z,100586.22
2023-04-28T22:20:27.282Z,100582.16
2023-04-28T22:25:49.988Z,100584.75
2023-04-28T22:31:11.845Z,100579.66
2023-04-28T22:36:33.680Z,100578.16
2023-04-28T22:41:55.612Z,100573.88
2023-04-28T22:47:17.473Z,100580.06
2023-04-28T22:52:39.391Z,100567.56
2023-04-28T22:58:01.293Z,100568.28
2023-04-28T23:03:23.265Z,100562.31
2023-04-28T23:08:45.151Z,100576.09
2023-04-28T23:14:06.994Z,100569.28
2023-04-28T23:19:28.881Z,100561.75
2023-04-28T23:24:50.699Z,100542.06
2023-04-28T23:30:13.092Z,100567.69
2023-04-28T23:35:34.908Z,100547.34
2023-04-28T23:40:56.751Z,100548.16
2023-04-28T23:46:18.669Z,100545.78
2023-04-28T23:51:40.511Z,100538.03
2023-04-28T23:57:02.384Z,100539.84
